Time;durP1;ratioP1;P1;durP2;ratioP2;P2;SDS_P1;SDS_P2;PMS_P1;PMS_P2;Temp;Humidity;BMP_temperature;BMP_pressure;BME280_temperature;BME280_humidity;BME280_pressure;Samples;Min_cycle;Max_cycle;Signal;HPM_P1;HPM_P2
2022/11/18 00:01:44;;;;;;;26.98;20.65;;;5.90;99.90;;;;;;5086186;28;20051;-50
2022/11/18 00:04:37;;;;;;;30.90;21.63;;;5.90;99.90;;;;;;5076467;28;20032;-54
2022/11/18 00:07:23;;;;;;;30.73;22.70;;;5.90;99.90;;;;;;5087566;28;20500;-51
2022/11/18 00:10:09;;;;;;;31.15;23.83;;;6.10;99.90;;;;;;5075321;28;20044;-50
2022/11/18 00:16:11;;;;;;;31.48;23.15;;;6.20;99.90;;;;;;5085040;28;20029;-53
2022/11/18 00:18:57;;;;;;;28.83;22.58;;;6.30;99.90;;;;;;5087953;28;20028;-57
2022/11/18 00:21:43;;;;;;;30.17;22.17;;;6.30;99.90;;;;;;5090107;28;20049;-55
2022/11/18 00:24:29;;;;;;;30.33;22.80;;;6.20;99.90;;;;;;5083702;28;20039;-55
2022/11/18 00:27:15;;;;;;;30.70;21.90;;;6.10;99.90;;;;;;5085861;28;20044;-54
2022/11/18 00:30:01;;;;;;;31.60;23.23;;;6.10;99.90;;;;;;5081674;28;20028;-56
2022/11/18 00:32:47;;;;;;;30.08;22.08;;;6.00;99.90;;;;;;5065619;28;20020;-50
2022/11/18 00:35:33;;;;;;;32.05;22.75;;;6.10;99.90;;;;;;5065744;28;20036;-49
2022/11/18 00:38:19;;;;;;;32.10;21.95;;;6.10;99.90;;;;;;5065650;28;20024;-48
2022/11/18 00:41:10;;;;;;;35.28;24.63;;;6.00;99.90;;;;;;5082131;28;20039;-48
2022/11/18 00:43:56;;;;;;;33.55;24.05;;;5.90;99.90;;;;;;5084668;28;20365;-51
2022/11/18 00:46:44;;;;;;;34.78;24.02;;;5.80;99.90;;;;;;5078881;28;20028;-51
2022/11/18 00:49:30;;;;;;;33.70;24.00;;;5.80;99.90;;;;;;5082215;28;20113;-53
2022/11/18 00:52:16;;;;;;;31.20;23.90;;;5.80;99.90;;;;;;5082010;28;20080;-47
2022/11/18 00:55:03;;;;;;;33.25;25.13;;;5.80;99.90;;;;;;5073216;28;20044;-49
2022/11/18 00:57:52;;;;;;;32.88;24.25;;;5.70;99.90;;;;;;5073626;28;20512;-50
2022/11/18 01:00:49;;;;;;;34.67;25.40;;;5.80;99.90;;;;;;5072167;28;20028;-52
2022/11/18 01:03:35;;;;;;;36.00;24.65;;;5.70;99.90;;;;;;5072960;28;20492;-54
2022/11/18 01:06:22;;;;;;;33.60;24.80;;;5.70;99.90;;;;;;5074465;28;20037;-51
2022/11/18 01:09:08;;;;;;;38.63;24.95;;;5.70;99.90;;;;;;5100965;28;20032;-48
2022/11/18 01:14:58;;;;;;;38.83;26.30;;;5.70;99.90;;;;;;5091214;28;20032;-54
2022/11/18 01:17:44;;;;;;;35.63;24.73;;;5.60;99.90;;;;;;5091477;28;20501;-50
2022/11/18 01:20:32;;;;;;;40.92;28.27;;;5.60;99.90;;;;;;5072601;28;20500;-48
2022/11/18 01:23:19;;;;;;;39.55;26.27;;;5.60;99.90;;;;;;5085659;28;20172;-49
2022/11/18 01:26:08;;;;;;;38.40;26.55;;;5.70;99.90;;;;;;5102239;28;20055;-50
2022/11/18 01:28:56;;;;;;;36.42;27.70;;;5.60;99.90;;;;;;5095974;28;20523;-49
2022/11/18 01:31:42;;;;;;;36.30;26.15;;;5.70;99.90;;;;;;5092538;28;20035;-51
2022/11/18 01:34:28;;;;;;;43.20;29.05;;;5.70;99.90;;;;;;5111898;28;20024;-50
2022/11/18 01:37:14;;;;;;;41.72;26.98;;;5.70;99.90;;;;;;5101355;28;20450;-50
2022/11/18 01:40:00;;;;;;;40.25;26.67;;;5.70;99.90;;;;;;5075923;28;20032;-52
2022/11/18 01:42:46;;;;;;;38.25;26.65;;;5.80;99.90;;;;;;5058673;28;20401;-48
2022/11/18 01:45:37;;;;;;;37.92;25.73;;;5.70;99.90;;;;;;5073317;28;20111;-48
2022/11/18 01:48:28;;;;;;;39.58;26.27;;;5.60;99.90;;;;;;5057921;28;20063;-52
2022/11/18 01:51:18;;;;;;;38.92;27.48;;;5.60;99.90;;;;;;5086241;28;20556;-48
2022/11/18 01:54:12;;;;;;;41.03;28.10;;;5.60;99.90;;;;;;5085602;28;20033;-52
2022/11/18 01:57:04;;;;;;;39.97;28.33;;;5.50;99.90;;;;;;5091122;28;20521;-51
2022/11/18 01:59:54;;;;;;;41.47;28.13;;;5.50;99.90;;;;;;5087001;28;20033;-55
2022/11/18 02:02:40;;;;;;;39.00;26.25;;;5.50;99.90;;;;;;5082900;28;20028;-54
2022/11/18 02:05:27;;;;;;;40.00;28.42;;;5.50;99.90;;;;;;5069348;28;20033;-52
2022/11/18 02:08:16;;;;;;;40.47;28.52;;;5.60;99.90;;;;;;5067847;28;20083;-54
2022/11/18 02:11:03;;;;;;;38.10;25.33;;;5.70;99.90;;;;;;5097980;28;20024;-51
2022/11/18 02:13:49;;;;;;;41.85;26.92;;;5.70;99.90;;;;;;5086596;28;20049;-50
2022/11/18 02:16:54;;;;;;;36.58;26.30;;;5.70;99.90;;;;;;5090946;28;20020;-48
2022/11/18 02:19:46;;;;;;;34.65;25.25;;;5.70;99.90;;;;;;5089303;28;20024;-48
2022/11/18 02:22:50;;;;;;;33.97;25.08;;;5.70;99.90;;;;;;5072164;28;20021;-55
2022/11/18 02:26:07;;;;;;;41.90;25.63;;;5.70;99.90;;;;;;5072313;28;20055;-52
2022/11/18 02:29:34;;;;;;;35.10;24.95;;;5.60;99.90;;;;;;5084597;28;20495;-48
2022/11/18 02:32:32;;;;;;;35.30;25.02;;;5.60;99.90;;;;;;5057445;28;20527;-54
2022/11/18 02:36:02;;;;;;;37.38;25.15;;;5.60;99.90;;;;;;5071660;28;20040;-49
2022/11/18 02:38:54;;;;;;;38.65;25.30;;;5.70;99.90;;;;;;5072046;28;20370;-48
2022/11/18 02:41:41;;;;;;;33.55;24.63;;;5.60;99.90;;;;;;5076014;28;20027;-51
2022/11/18 02:44:29;;;;;;;35.63;25.23;;;5.50;99.90;;;;;;5088855;28;20082;-53
2022/11/18 02:47:16;;;;;;;34.00;23.60;;;5.60;99.90;;;;;;5072763;28;20135;-53
2022/11/18 02:50:09;;;;;;;34.65;24.35;;;5.50;99.90;;;;;;5090777;28;20028;-51
2022/11/18 02:52:58;;;;;;;36.90;24.17;;;5.50;99.90;;;;;;5072159;28;20040;-48
2022/11/18 02:55:46;;;;;;;39.95;25.80;;;5.60;99.90;;;;;;5075971;28;20071;-48
2022/11/18 02:58:32;;;;;;;34.45;24.33;;;5.50;99.90;;;;;;5056750;28;20485;-52
2022/11/18 03:01:28;;;;;;;37.10;25.23;;;5.50;99.90;;;;;;5061274;28;20443;-50
2022/11/18 03:04:16;;;;;;;35.83;23.92;;;5.50;99.90;;;;;;5071144;28;20108;-55
2022/11/18 03:07:15;;;;;;;35.83;25.13;;;5.50;99.90;;;;;;5076677;28;20075;-50
2022/11/18 03:10:02;;;;;;;37.10;24.92;;;5.50;99.90;;;;;;5071819;28;20036;-51
2022/11/18 03:13:04;;;;;;;37.33;24.88;;;5.50;99.90;;;;;;5071085;28;20036;-49
2022/11/18 03:16:08;;;;;;;34.67;24.17;;;5.50;99.90;;;;;;5076596;28;20107;-52
2022/11/18 03:19:28;;;;;;;37.47;25.15;;;5.50;99.90;;;;;;5078152;28;20046;-53
2022/11/18 03:22:24;;;;;;;35.85;24.85;;;5.50;99.90;;;;;;5074418;28;20025;-53
2022/11/18 03:25:22;;;;;;;37.65;25.80;;;5.50;99.90;;;;;;5091052;28;20032;-48
2022/11/18 03:28:11;;;;;;;40.75;26.40;;;5.50;99.90;;;;;;5076550;28;20028;-50
2022/11/18 03:31:07;;;;;;;40.00;26.27;;;5.50;99.90;;;;;;5089154;28;20024;-50
2022/11/18 03:34:26;;;;;;;37.08;25.77;;;5.50;99.90;;;;;;5055449;28;20553;-50
2022/11/18 03:37:15;;;;;;;40.47;28.08;;;5.60;99.90;;;;;;5073094;28;20036;-57
2022/11/18 03:40:15;;;;;;;36.97;25.42;;;5.50;99.90;;;;;;5090349;28;20025;-53
2022/11/18 03:43:09;;;;;;;36.95;25.15;;;5.50;99.90;;;;;;5060730;28;20074;-52
2022/11/18 03:46:07;;;;;;;37.92;26.65;;;5.50;99.90;;;;;;5055896;28;20056;-49
2022/11/18 03:48:55;;;;;;;40.85;27.58;;;5.40;99.90;;;;;;5072434;28;20025;-52
2022/11/18 03:51:46;;;;;;;39.08;26.00;;;5.40;99.90;;;;;;5090366;28;20032;-51
2022/11/18 03:54:35;;;;;;;40.97;26.20;;;5.40;99.90;;;;;;5090365;28;20024;-48
2022/11/18 03:57:26;;;;;;;39.70;27.20;;;5.40;99.90;;;;;;5073356;28;20025;-54
2022/11/18 04:00:15;;;;;;;36.03;25.83;;;5.40;99.90;;;;;;5042267;28;20024;-53
2022/11/18 04:03:01;;;;;;;36.35;25.58;;;5.40;99.90;;;;;;5060044;28;20090;-49
2022/11/18 04:05:53;;;;;;;42.00;27.73;;;5.40;99.90;;;;;;5071710;28;20067;-52
2022/11/18 04:08:42;;;;;;;40.88;26.92;;;5.40;99.90;;;;;;5062009;28;20024;-51
2022/11/18 04:14:48;;;;;;;41.92;27.15;;;5.20;99.90;;;;;;5108744;28;20116;-49
2022/11/18 04:17:34;;;;;;;47.17;27.30;;;5.30;99.90;;;;;;5101299;28;20111;-50
2022/11/18 04:20:21;;;;;;;41.03;28.63;;;5.30;99.90;;;;;;5091182;28;20059;-48
2022/11/18 04:23:07;;;;;;;44.15;29.08;;;5.20;99.90;;;;;;5067514;28;20028;-49
2022/11/18 04:25:54;;;;;;;44.22;28.92;;;5.20;99.90;;;;;;5094069;28;20032;-47
2022/11/18 04:28:40;;;;;;;43.22;29.42;;;5.00;99.90;;;;;;5078537;28;20036;-48
2022/11/18 04:31:25;;;;;;;43.78;27.98;;;5.00;99.90;;;;;;5091768;28;20108;-51
2022/11/18 04:34:11;;;;;;;42.53;28.25;;;4.90;99.90;;;;;;5093751;28;20028;-48
2022/11/18 04:36:58;;;;;;;46.90;30.05;;;4.80;99.90;;;;;;5062712;28;20492;-52
2022/11/18 04:39:44;;;;;;;48.33;28.33;;;4.80;99.90;;;;;;5092127;28;20028;-49
2022/11/18 04:42:30;;;;;;;49.88;29.58;;;4.90;99.90;;;;;;5078842;28;20032;-49
2022/11/18 04:45:16;;;;;;;45.50;30.02;;;4.90;99.90;;;;;;5060016;28;20535;-49
2022/11/18 04:48:02;;;;;;;43.63;28.15;;;4.90;99.90;;;;;;5074145;28;20033;-56
2022/11/18 04:50:47;;;;;;;47.97;29.67;;;4.90;99.90;;;;;;5060030;28;20029;-49
2022/11/18 04:53:33;;;;;;;44.28;27.92;;;4.90;99.90;;;;;;5074747;28;20109;-47
2022/11/18 04:56:19;;;;;;;45.83;27.38;;;4.90;99.90;;;;;;5091028;28;20036;-51
2022/11/18 04:59:06;;;;;;;45.25;27.95;;;4.90;99.90;;;;;;5077746;28;20062;-49
2022/11/18 05:01:52;;;;;;;52.17;29.52;;;4.90;99.90;;;;;;5092618;28;20020;-48
2022/11/18 05:04:38;;;;;;;48.65;28.73;;;4.90;99.90;;;;;;5072992;28;20033;-48
2022/11/18 05:07:24;;;;;;;45.13;29.20;;;4.80;99.90;;;;;;5084909;28;20021;-52
2022/11/18 05:10:10;;;;;;;44.55;27.60;;;4.80;99.90;;;;;;5070562;28;20037;-49
2022/11/18 05:12:56;;;;;;;47.90;28.73;;;4.90;99.90;;;;;;5073799;28;20172;-51
2022/11/18 05:15:42;;;;;;;50.88;30.42;;;4.80;99.90;;;;;;5084840;28;20458;-50
2022/11/18 05:18:28;;;;;;;47.45;28.50;;;4.90;99.90;;;;;;5087510;28;20518;-49
2022/11/18 05:21:14;;;;;;;44.63;28.50;;;4.90;99.90;;;;;;5090492;28;20028;-50
2022/11/18 05:24:01;;;;;;;48.33;29.35;;;4.80;99.90;;;;;;5070385;28;20032;-53
2022/11/18 05:26:47;;;;;;;46.35;28.33;;;4.70;99.90;;;;;;5090334;28;20032;-52
2022/11/18 05:29:33;;;;;;;45.60;27.98;;;4.70;99.90;;;;;;5092437;28;20107;-47
2022/11/18 05:32:19;;;;;;;45.85;26.55;;;4.70;99.90;;;;;;5080314;28;20036;-51
2022/11/18 05:35:05;;;;;;;48.35;29.65;;;4.70;99.90;;;;;;5094479;28;20484;-50
2022/11/18 05:37:51;;;;;;;48.90;29.05;;;4.70;99.90;;;;;;5081968;28;20024;-52
2022/11/18 05:40:37;;;;;;;48.58;30.17;;;4.60;99.90;;;;;;5092413;28;20396;-52
2022/11/18 05:43:23;;;;;;;48.63;28.50;;;4.60;99.90;;;;;;5075279;28;20025;-50
2022/11/18 05:46:09;;;;;;;49.55;27.88;;;4.50;99.90;;;;;;5091664;28;20247;-47
2022/11/18 05:48:55;;;;;;;46.53;27.25;;;4.40;99.90;;;;;;5074782;28;20040;-48
2022/11/18 05:51:40;;;;;;;51.33;27.95;;;4.50;99.90;;;;;;5073078;28;20082;-48
2022/11/18 05:54:26;;;;;;;45.58;27.40;;;4.50;99.90;;;;;;5073935;28;20036;-51
2022/11/18 05:57:12;;;;;;;46.50;27.98;;;4.30;99.90;;;;;;5080901;28;20074;-51
2022/11/18 05:59:58;;;;;;;48.70;27.77;;;4.30;99.90;;;;;;5072317;28;20028;-52
2022/11/18 06:02:48;;;;;;;49.55;29.08;;;4.30;99.90;;;;;;5058501;28;20036;-52
2022/11/18 06:05:34;;;;;;;49.70;26.95;;;4.30;99.90;;;;;;5085442;28;20028;-47
2022/11/18 06:08:25;;;;;;;51.75;29.42;;;4.30;99.90;;;;;;5091292;28;20089;-54
2022/11/18 06:11:16;;;;;;;49.03;28.20;;;4.30;99.90;;;;;;5072640;28;20035;-54
2022/11/18 06:14:26;;;;;;;45.85;26.55;;;4.30;99.90;;;;;;5073217;28;20029;-52
2022/11/18 06:17:21;;;;;;;48.10;27.83;;;4.30;99.90;;;;;;5073548;28;20025;-55
2022/11/18 06:20:08;;;;;;;50.33;28.63;;;4.30;99.90;;;;;;5075029;28;20016;-57
2022/11/18 06:22:56;;;;;;;45.72;28.63;;;4.30;99.90;;;;;;5076533;28;20063;-55
2022/11/18 06:25:42;;;;;;;52.10;29.13;;;4.30;99.90;;;;;;5071672;28;20028;-54
2022/11/18 06:28:29;;;;;;;48.55;27.52;;;4.30;99.90;;;;;;5079587;28;20442;-54
2022/11/18 06:31:15;;;;;;;45.55;26.02;;;4.40;99.90;;;;;;5070616;28;20493;-48
2022/11/18 06:34:01;;;;;;;50.95;27.38;;;4.30;99.90;;;;;;5071305;28;20056;-53
2022/11/18 06:36:47;;;;;;;43.92;27.73;;;4.30;99.90;;;;;;5071499;28;20036;-54
2022/11/18 06:39:36;;;;;;;46.97;28.02;;;4.30;99.90;;;;;;5077676;28;20419;-50
2022/11/18 06:45:26;;;;;;;44.70;28.48;;;4.30;99.90;;;;;;5083299;28;20036;-52
2022/11/18 06:48:12;;;;;;;45.88;27.83;;;4.20;99.90;;;;;;5077184;28;20032;-48
2022/11/18 06:50:58;;;;;;;46.28;27.98;;;4.30;99.90;;;;;;5078501;28;20119;-49
2022/11/18 06:53:44;;;;;;;50.58;28.52;;;4.20;99.90;;;;;;5087904;28;20028;-50
2022/11/18 06:56:30;;;;;;;45.08;27.65;;;4.30;99.90;;;;;;5089083;28;20047;-48
2022/11/18 06:59:22;;;;;;;49.58;28.63;;;4.20;99.90;;;;;;5073420;28;20370;-50
2022/11/18 07:02:08;;;;;;;47.30;27.65;;;4.20;99.90;;;;;;5088733;28;20028;-52
2022/11/18 07:04:54;;;;;;;47.13;28.75;;;4.30;99.90;;;;;;5077364;28;20400;-49
2022/11/18 07:07:40;;;;;;;48.03;28.85;;;4.30;99.90;;;;;;5084731;28;20380;-51
2022/11/18 07:10:25;;;;;;;49.08;28.63;;;4.30;99.90;;;;;;5080797;28;20036;-49
2022/11/18 07:13:11;;;;;;;51.75;30.33;;;4.30;99.90;;;;;;5074583;28;20043;-51
2022/11/18 07:16:02;;;;;;;48.50;29.30;;;4.30;99.90;;;;;;5098112;28;20450;-52
2022/11/18 07:18:50;;;;;;;49.83;28.63;;;4.30;99.90;;;;;;5070663;28;20029;-49
2022/11/18 07:21:36;;;;;;;48.13;28.33;;;4.30;99.90;;;;;;5069125;28;20116;-47
2022/11/18 07:24:22;;;;;;;46.33;28.38;;;4.30;99.90;;;;;;5090615;28;20115;-51
2022/11/18 07:27:08;;;;;;;47.50;28.75;;;4.30;99.90;;;;;;5072928;28;20032;-51
2022/11/18 07:29:54;;;;;;;49.85;29.40;;;4.30;99.90;;;;;;5077447;28;20446;-48
2022/11/18 07:32:40;;;;;;;46.92;29.08;;;4.30;99.90;;;;;;5081631;28;20033;-47
2022/11/18 07:35:26;;;;;;;49.97;29.90;;;4.30;99.90;;;;;;5071385;28;20492;-50
2022/11/18 07:38:12;;;;;;;49.58;30.23;;;4.30;99.90;;;;;;5083103;28;20484;-55
2022/11/18 07:41:06;;;;;;;47.75;28.63;;;4.20;99.90;;;;;;5090613;28;20103;-50
2022/11/18 07:43:54;;;;;;;48.92;27.85;;;4.10;99.90;;;;;;5071052;28;20492;-52
2022/11/18 07:46:40;;;;;;;49.13;28.85;;;4.00;99.90;;;;;;5094175;28;20024;-51
2022/11/18 07:49:26;;;;;;;49.65;28.30;;;4.10;99.90;;;;;;5048022;28;20049;-53
2022/11/18 07:52:12;;;;;;;47.15;28.20;;;4.10;99.90;;;;;;5093984;28;20044;-52
2022/11/18 07:54:58;;;;;;;49.33;29.45;;;4.00;99.90;;;;;;5096423;28;20502;-51
2022/11/18 07:57:43;;;;;;;58.72;29.55;;;3.90;99.90;;;;;;5093647;28;20028;-54
2022/11/18 08:00:29;;;;;;;50.63;29.42;;;3.90;99.90;;;;;;5085356;28;20111;-48
2022/11/18 08:03:15;;;;;;;51.65;28.50;;;3.80;99.90;;;;;;5091455;28;20056;-50
2022/11/18 08:06:03;;;;;;;50.83;28.80;;;3.80;99.90;;;;;;5088102;28;20028;-49
2022/11/18 08:08:49;;;;;;;53.17;28.77;;;3.70;99.90;;;;;;5108539;28;20053;-50
2022/11/18 08:11:35;;;;;;;47.50;29.83;;;3.70;99.90;;;;;;5074172;28;20488;-50
2022/11/18 08:14:23;;;;;;;52.47;30.63;;;3.80;99.90;;;;;;5090980;28;20036;-51
2022/11/18 08:17:08;;;;;;;49.65;30.13;;;3.80;99.90;;;;;;5083679;28;20081;-55
2022/11/18 08:19:54;;;;;;;52.67;30.17;;;3.80;99.90;;;;;;5083806;28;20093;-52
2022/11/18 08:22:40;;;;;;;52.95;30.90;;;3.70;99.90;;;;;;5090645;28;20111;-53
2022/11/18 08:25:27;;;;;;;55.03;30.48;;;3.70;99.90;;;;;;5092140;28;20024;-50
2022/11/18 08:28:13;;;;;;;54.60;33.17;;;3.80;99.90;;;;;;5090975;28;20565;-55
2022/11/18 08:30:59;;;;;;;53.00;29.90;;;3.90;99.90;;;;;;5077152;28;20039;-49
2022/11/18 08:33:46;;;;;;;50.35;30.35;;;4.00;99.90;;;;;;5093377;28;20094;-49
2022/11/18 08:36:33;;;;;;;53.08;31.27;;;3.90;99.90;;;;;;5083297;28;20451;-54
2022/11/18 08:39:19;;;;;;;52.92;31.25;;;3.80;99.90;;;;;;5075432;28;20024;-53
2022/11/18 08:42:05;;;;;;;52.03;30.33;;;3.60;99.90;;;;;;5092948;28;20157;-56
2022/11/18 08:44:51;;;;;;;53.55;30.08;;;3.50;99.90;;;;;;5076236;28;20040;-56
2022/11/18 08:47:37;;;;;;;54.78;30.90;;;3.40;99.90;;;;;;5092479;28;20032;-56
2022/11/18 08:50:23;;;;;;;59.60;31.80;;;3.40;99.90;;;;;;5093972;28;20111;-59
2022/11/18 08:53:09;;;;;;;56.00;31.23;;;3.40;99.90;;;;;;5092708;28;20039;-54
2022/11/18 08:55:56;;;;;;;54.05;31.15;;;3.50;99.90;;;;;;5104001;28;20028;-52
2022/11/18 08:58:42;;;;;;;51.92;31.58;;;3.50;99.90;;;;;;5086148;28;20572;-54
2022/11/18 09:01:31;;;;;;;56.47;30.05;;;3.40;99.90;;;;;;5093044;28;20032;-49
2022/11/18 09:04:17;;;;;;;51.63;29.33;;;3.30;99.90;;;;;;5075764;28;20495;-51
2022/11/18 09:07:04;;;;;;;50.30;29.83;;;3.30;99.90;;;;;;5085211;28;20085;-48
2022/11/18 09:09:49;;;;;;;47.65;28.02;;;3.30;99.90;;;;;;5060201;28;20115;-51
2022/11/18 09:12:35;;;;;;;48.45;29.15;;;3.20;99.90;;;;;;5081063;28;20442;-49
2022/11/18 09:15:22;;;;;;;52.92;30.75;;;3.20;99.90;;;;;;5072440;28;20020;-52
2022/11/18 09:18:08;;;;;;;56.05;30.48;;;3.20;99.90;;;;;;5082625;28;20104;-55
2022/11/18 09:21:13;;;;;;;50.17;27.77;;;3.20;99.90;;;;;;5063587;28;20031;-51
2022/11/18 09:24:02;;;;;;;50.40;29.40;;;3.30;99.90;;;;;;5064872;28;20521;-55
2022/11/18 09:26:48;;;;;;;53.95;30.17;;;3.30;99.90;;;;;;5079267;28;20036;-49
2022/11/18 09:29:34;;;;;;;50.65;29.25;;;3.30;99.90;;;;;;5072266;28;20024;-50
2022/11/18 09:32:20;;;;;;;57.88;32.17;;;3.40;99.90;;;;;;5067475;28;20468;-52
2022/11/18 09:35:06;;;;;;;56.83;34.38;;;3.20;99.90;;;;;;5068771;28;20024;-54
2022/11/18 09:37:52;;;;;;;56.30;32.00;;;3.10;99.90;;;;;;5068941;28;20021;-53
2022/11/18 09:41:00;;;;;;;53.58;31.73;;;3.10;99.90;;;;;;5078011;28;20178;-49
2022/11/18 09:44:16;;;;;;;54.33;30.92;;;3.10;99.90;;;;;;5089019;28;20028;-49
2022/11/18 09:47:13;;;;;;;53.10;30.48;;;3.00;99.90;;;;;;5079034;28;20032;-54
2022/11/18 09:50:14;;;;;;;54.63;31.20;;;2.70;99.90;;;;;;5079917;28;20623;-57
2022/11/18 09:53:09;;;;;;;54.75;30.20;;;2.70;99.90;;;;;;5084126;28;20496;-53
2022/11/18 09:55:56;;;;;;;64.50;32.55;;;2.80;99.90;;;;;;5083696;28;20055;-51
2022/11/18 09:58:43;;;;;;;58.50;31.38;;;2.80;99.90;;;;;;5080326;28;20040;-56
2022/11/18 10:01:30;;;;;;;58.67;32.25;;;2.80;99.90;;;;;;5083614;28;20046;-50
2022/11/18 10:04:18;;;;;;;56.80;30.88;;;2.70;99.90;;;;;;5067895;28;20107;-50
2022/11/18 10:07:19;;;;;;;57.20;29.67;;;2.70;99.90;;;;;;5079995;28;20028;-50
2022/11/18 10:10:15;;;;;;;51.72;29.75;;;2.70;99.90;;;;;;5067186;28;20029;-52
2022/11/18 10:13:11;;;;;;;56.17;32.13;;;2.60;99.90;;;;;;5087882;28;20020;-56
2022/11/18 10:16:17;;;;;;;50.40;29.52;;;2.60;99.90;;;;;;5098262;28;20055;-52
2022/11/18 10:19:14;;;;;;;;;;;2.50;99.90;;;;;;5107938;28;20411;-49
2022/11/18 10:22:18;;;;;;;49.78;28.08;;;2.40;99.90;;;;;;5089320;28;19912;-47
2022/11/18 10:25:12;;;;;;;50.42;28.55;;;2.40;99.90;;;;;;5090162;28;20016;-49
2022/11/18 10:28:13;;;;;;;56.13;30.75;;;2.50;99.90;;;;;;5074237;28;20028;-50
2022/11/18 10:31:05;;;;;;;50.47;29.20;;;2.40;99.90;;;;;;5077045;28;20032;-50
2022/11/18 10:33:59;;;;;;;49.80;29.02;;;2.50;99.90;;;;;;5070923;28;20092;-56
2022/11/18 10:36:59;;;;;;;47.13;26.85;;;2.50;99.90;;;;;;5082353;28;20496;-53
2022/11/18 10:39:57;;;;;;;46.17;26.85;;;2.50;99.90;;;;;;5083198;28;20107;-58
2022/11/18 10:42:47;;;;;;;42.90;24.80;;;2.50;99.90;;;;;;5078343;28;20390;-51
2022/11/18 10:45:33;;;;;;;42.10;24.65;;;2.40;99.90;;;;;;5077848;28;20021;-55
2022/11/18 10:48:19;;;;;;;43.15;25.77;;;2.40;99.90;;;;;;5078112;28;20035;-53
2022/11/18 10:51:21;;;;;;;39.30;24.60;;;2.50;99.90;;;;;;5089430;28;20025;-56
2022/11/18 10:54:17;;;;;;;41.60;23.48;;;2.60;99.90;;;;;;5087689;28;20178;-51
2022/11/18 10:57:20;;;;;;;40.25;23.23;;;2.60;99.90;;;;;;5086538;28;20020;-53
2022/11/18 11:00:35;;;;;;;40.47;23.95;;;2.70;99.90;;;;;;5083276;28;20066;-50
2022/11/18 11:03:21;;;;;;;36.13;22.48;;;2.90;99.90;;;;;;5080908;28;20368;-52
2022/11/18 11:06:20;;;;;;;37.72;24.00;;;2.80;99.90;;;;;;5079538;28;20031;-49
2022/11/18 11:09:28;;;;;;;38.67;22.33;;;2.90;99.90;;;;;;5074011;28;20028;-53
2022/11/18 11:12:16;;;;;;;32.22;21.02;;;2.90;99.90;;;;;;5071051;28;20029;-56
2022/11/18 11:15:12;;;;;;;27.95;17.95;;;3.30;99.90;;;;;;5080493;28;20038;-57
2022/11/18 11:21:14;;;;;;;19.80;13.57;;;3.80;99.90;;;;;;5088526;28;19965;-53
2022/11/18 11:24:00;;;;;;;18.25;13.25;;;3.80;99.90;;;;;;5088441;28;20276;-56
2022/11/18 11:27:01;;;;;;;17.52;12.00;;;3.60;99.90;;;;;;5056608;28;20025;-53
2022/11/18 11:30:17;;;;;;;17.67;12.15;;;3.50;99.90;;;;;;5086178;28;20063;-57
2022/11/18 11:33:21;;;;;;;17.70;12.25;;;3.40;99.90;;;;;;5071898;28;20115;-56
2022/11/18 11:36:07;;;;;;;17.92;12.82;;;3.40;99.90;;;;;;5089256;28;20075;-53
2022/11/18 11:39:12;;;;;;;20.48;13.95;;;3.60;99.90;;;;;;5089107;28;20020;-53
2022/11/18 11:42:07;;;;;;;17.83;13.07;;;3.70;99.90;;;;;;5089517;28;20395;-49
2022/11/18 11:45:10;;;;;;;19.02;13.98;;;3.50;99.90;;;;;;5072077;28;20433;-56
2022/11/18 11:48:37;;;;;;;19.80;14.52;;;3.30;99.90;;;;;;5059353;28;20032;-48
2022/11/18 11:51:41;;;;;;;20.17;14.75;;;3.10;99.90;;;;;;4991677;28;20611;-51
2022/11/18 11:54:42;;;;;;;20.00;13.80;;;2.90;99.90;;;;;;5076548;28;20114;-54
2022/11/18 11:57:37;;;;;;;21.85;14.95;;;2.60;99.90;;;;;;5090310;28;20016;-50
2022/11/18 12:00:23;;;;;;;21.08;14.77;;;2.50;99.90;;;;;;5076220;28;20081;-57
2022/11/18 12:03:41;;;;;;;18.98;13.35;;;2.60;99.90;;;;;;5090977;28;20040;-50
2022/11/18 12:06:28;;;;;;;22.60;14.45;;;2.60;99.90;;;;;;5061933;28;20079;-50
2022/11/18 12:09:28;;;;;;;20.15;14.27;;;2.60;99.90;;;;;;5075138;28;20052;-48
2022/11/18 12:12:36;;;;;;;21.05;13.55;;;2.60;99.90;;;;;;5087260;28;20020;-52
2022/11/18 12:15:43;;;;;;;20.75;13.80;;;2.60;99.90;;;;;;5090945;28;20154;-51
2022/11/18 12:18:39;;;;;;;18.65;13.65;;;2.50;99.90;;;;;;5091443;28;20035;-48
2022/11/18 12:21:44;;;;;;;18.95;14.02;;;2.40;99.90;;;;;;5076718;28;20032;-51
2022/11/18 12:24:41;;;;;;;29.23;18.13;;;2.30;99.90;;;;;;5091027;28;20036;-50
2022/11/18 12:27:30;;;;;;;31.33;20.60;;;2.30;99.90;;;;;;5074478;28;20036;-55
2022/11/18 12:30:19;;;;;;;22.48;15.93;;;2.40;99.90;;;;;;5092986;28;20025;-52
2022/11/18 12:33:13;;;;;;;19.15;12.95;;;2.40;99.90;;;;;;5094548;28;20060;-54
2022/11/18 12:35:59;;;;;;;19.70;13.60;;;2.40;99.90;;;;;;5098572;28;20097;-53
2022/11/18 12:38:45;;;;;;;18.20;13.13;;;2.30;99.90;;;;;;5099945;28;20102;-52
2022/11/18 12:44:47;;;;;;;20.25;13.52;;;2.20;99.90;;;;;;5082457;28;20032;-53
2022/11/18 12:47:39;;;;;;;17.70;13.43;;;2.30;99.90;;;;;;5066953;28;20027;-55
2022/11/18 12:50:55;;;;;;;17.65;12.10;;;2.30;99.90;;;;;;5077309;28;20020;-56
2022/11/18 12:53:44;;;;;;;22.73;15.75;;;2.40;99.90;;;;;;5073375;28;20686;-48
2022/11/18 12:56:35;;;;;;;24.98;17.60;;;2.40;99.90;;;;;;5058819;28;20029;-50
2022/11/18 12:59:35;;;;;;;28.55;20.45;;;2.20;99.90;;;;;;5091627;28;20036;-52
2022/11/18 13:02:26;;;;;;;30.52;20.10;;;2.00;99.90;;;;;;5094600;28;20081;-53
2022/11/18 13:05:22;;;;;;;32.75;21.88;;;2.00;99.90;;;;;;5091730;28;20414;-54
2022/11/18 13:08:12;;;;;;;32.30;22.52;;;1.90;99.90;;;;;;5091813;28;20043;-55
2022/11/18 13:20:36;;;;;;;34.60;24.48;;;1.60;99.90;;;;;;5091953;28;20020;-50
2022/11/18 13:26:40;;;;;;;36.20;25.65;;;1.50;99.90;;;;;;5079507;28;20032;-54
2022/11/18 13:29:39;;;;;;;39.15;25.48;;;1.40;99.90;;;;;;5079320;28;20031;-56
2022/11/18 13:32:27;;;;;;;40.83;26.60;;;1.50;99.90;;;;;;5092648;28;20442;-51
2022/11/18 13:35:22;;;;;;;40.15;26.45;;;1.50;99.90;;;;;;5079037;28;20036;-56
2022/11/18 13:38:21;;;;;;;37.70;25.58;;;1.50;99.90;;;;;;5093293;28;20396;-54
2022/11/18 13:41:22;;;;;;;40.60;27.02;;;1.60;99.90;;;;;;5092932;28;20034;-54
2022/11/18 13:44:17;;;;;;;42.63;26.88;;;1.80;99.90;;;;;;5094173;28;20158;-50
2022/11/18 13:47:28;;;;;;;47.95;29.05;;;1.80;99.90;;;;;;5091872;28;20032;-54
2022/11/18 13:50:17;;;;;;;39.22;25.48;;;1.70;99.90;;;;;;5078609;28;20088;-53
2022/11/18 13:53:30;;;;;;;39.72;27.65;;;1.70;99.90;;;;;;5076640;28;20414;-56
2022/11/18 13:56:21;;;;;;;42.17;26.98;;;1.60;99.90;;;;;;5072947;28;20036;-56
2022/11/18 13:59:16;;;;;;;41.88;27.65;;;1.60;99.90;;;;;;5088707;28;20016;-51
2022/11/18 14:02:02;;;;;;;43.55;28.90;;;1.50;99.90;;;;;;5090394;28;20023;-58
2022/11/18 14:04:58;;;;;;;43.13;28.35;;;1.30;99.90;;;;;;5091691;28;20523;-54
2022/11/18 14:07:57;;;;;;;45.53;30.15;;;1.30;99.90;;;;;;5092792;28;20031;-56
2022/11/18 14:10:44;;;;;;;46.78;31.17;;;1.40;99.90;;;;;;5075317;28;20028;-53
2022/11/18 14:13:35;;;;;;;45.20;30.20;;;1.50;99.90;;;;;;5092115;28;20067;-54
2022/11/18 14:16:21;;;;;;;48.90;31.05;;;1.40;99.90;;;;;;5092377;28;20028;-56
2022/11/18 14:19:29;;;;;;;48.00;30.63;;;1.40;99.90;;;;;;5092547;28;20020;-58
2022/11/18 14:22:20;;;;;;;47.25;31.17;;;1.40;99.90;;;;;;5069023;28;20030;-55
2022/11/18 14:25:20;;;;;;;47.33;30.95;;;1.20;99.90;;;;;;5076528;28;20039;-51
2022/11/18 14:28:12;;;;;;;44.55;30.23;;;1.20;99.90;;;;;;5082431;28;20032;-59
2022/11/18 14:31:11;;;;;;;47.17;31.40;;;1.10;99.90;;;;;;5082109;28;20029;-61
2022/11/18 14:34:05;;;;;;;44.92;30.20;;;1.10;99.90;;;;;;5066398;28;20398;-58
2022/11/18 14:36:54;;;;;;;49.70;32.55;;;1.20;99.90;;;;;;5066783;28;20020;-60
2022/11/18 14:39:40;;;;;;;50.42;32.95;;;1.40;99.90;;;;;;5082478;28;20059;-59
2022/11/18 14:42:26;;;;;;;50.17;32.75;;;1.30;99.90;;;;;;5068751;28;20020;-58
2022/11/18 14:45:13;;;;;;;47.15;30.55;;;1.40;99.90;;;;;;5073921;28;20055;-57
2022/11/18 14:48:02;;;;;;;44.97;30.15;;;1.40;99.90;;;;;;5095391;28;20032;-58
2022/11/18 14:50:48;;;;;;;48.25;31.15;;;1.40;99.90;;;;;;5092260;28;20069;-56
2022/11/18 14:53:34;;;;;;;51.65;31.90;;;1.40;99.90;;;;;;5062893;28;20123;-57
2022/11/18 14:56:24;;;;;;;48.08;30.90;;;1.50;99.90;;;;;;5085801;28;20491;-56
2022/11/18 14:59:12;;;;;;;46.92;30.38;;;1.40;99.90;;;;;;5081379;28;20017;-56
2022/11/18 15:01:58;;;;;;;52.05;32.47;;;1.30;99.90;;;;;;5076053;28;20028;-60
2022/11/18 15:04:45;;;;;;;53.35;32.60;;;1.10;99.90;;;;;;5081299;28;20505;-60
2022/11/18 15:07:31;;;;;;;52.53;32.67;;;0.90;99.90;;;;;;5081054;28;20040;-60
2022/11/18 15:10:17;;;;;;;50.10;31.52;;;0.90;99.90;;;;;;5080060;28;20100;-58
2022/11/18 15:13:03;;;;;;;54.40;34.67;;;0.90;99.90;;;;;;5080934;28;20028;-54